AEE3MK LGMK-LGAV
Flight info
| Callsign | AEE3MK |
|---|---|
| Flight time | 0h 24m |
| Altitude | 16000 |
| Route | VARIX |
| Aircraft | A320/M-SDE3FGHIRWY/LB1 |
Departure
| Time | 2026-05-07 19:45 |
|---|---|
| Airport | Mykonos Island National Airport (LGMK) |
Arrival
| Time | 2026-05-07 20:10 |
|---|---|
| Airport | Athens Eleftherios Venizelos International Airport (LGAV) |
| Time | Latitude | Longitude | Altitude | Speed | Heading |
|---|---|---|---|---|---|
| 2026-05-07 19:03 | 37.43465 | 25.34662 | 407 ft | 0 kts | 251° |
| 2026-05-07 19:33 | 37.43467 | 25.34671 | 407 ft | 4 kts | 253° |
| 2026-05-07 19:34 | 37.43471 | 25.34704 | 407 ft | 4 kts | 279° |
| 2026-05-07 19:34 | 37.43461 | 25.34730 | 405 ft | 3 kts | 338° |
| 2026-05-07 19:34 | 37.43458 | 25.34731 | 405 ft | 0 kts | 341° |
| 2026-05-07 19:36 | 37.43473 | 25.34725 | 405 ft | 5 kts | 341° |
| 2026-05-07 19:36 | 37.43523 | 25.34703 | 408 ft | 9 kts | 341° |
| 2026-05-07 19:36 | 37.43583 | 25.34678 | 408 ft | 9 kts | 341° |
| 2026-05-07 19:36 | 37.43643 | 25.34691 | 409 ft | 8 kts | 37° |
| 2026-05-07 19:37 | 37.43684 | 25.34723 | 411 ft | 7 kts | 27° |
| 2026-05-07 19:37 | 37.43744 | 25.34720 | 411 ft | 11 kts | 347° |
| 2026-05-07 19:37 | 37.43819 | 25.34689 | 409 ft | 11 kts | 341° |
| 2026-05-07 19:37 | 37.43894 | 25.34656 | 412 ft | 12 kts | 341° |
| 2026-05-07 19:38 | 37.43974 | 25.34618 | 411 ft | 13 kts | 339° |
| 2026-05-07 19:38 | 37.44068 | 25.34575 | 407 ft | 16 kts | 342° |
| 2026-05-07 19:38 | 37.44177 | 25.34531 | 407 ft | 16 kts | 340° |
| 2026-05-07 19:38 | 37.44265 | 25.34504 | 406 ft | 7 kts | 13° |
| 2026-05-07 19:39 | 37.44307 | 25.34500 | 402 ft | 6 kts | 308° |
| 2026-05-07 19:39 | 37.44285 | 25.34462 | 405 ft | 7 kts | 176° |
| 2026-05-07 19:39 | 37.44270 | 25.34482 | 403 ft | 1 kts | 124° |
| 2026-05-07 19:39 | 37.44268 | 25.34484 | 403 ft | 0 kts | 133° |
| 2026-05-07 19:40 | 37.44260 | 25.34489 | 404 ft | 3 kts | 147° |
| 2026-05-07 19:40 | 37.44248 | 25.34495 | 406 ft | 0 kts | 160° |
| 2026-05-07 19:44 | 37.44242 | 25.34498 | 406 ft | 7 kts | 160° |
| 2026-05-07 19:45 | 37.43938 | 25.34634 | 411 ft | 87 kts | 160° |
| 2026-05-07 19:45 | 37.43145 | 25.34987 | 416 ft | 151 kts | 159° |
| 2026-05-07 19:45 | 37.42089 | 25.35505 | 835 ft | 170 kts | 161° |
| 2026-05-07 19:45 | 37.40945 | 25.36012 | 1538 ft | 178 kts | 162° |
| 2026-05-07 19:46 | 37.39760 | 25.36543 | 2301 ft | 185 kts | 162° |
| 2026-05-07 19:46 | 37.38498 | 25.37113 | 2742 ft | 200 kts | 163° |
| 2026-05-07 19:46 | 37.37142 | 25.37678 | 3236 ft | 210 kts | 164° |
| 2026-05-07 19:46 | 37.35681 | 25.38209 | 3734 ft | 226 kts | 172° |
| 2026-05-07 19:47 | 37.34158 | 25.37958 | 4527 ft | 225 kts | 208° |
| 2026-05-07 19:47 | 37.33022 | 25.36591 | 5158 ft | 239 kts | 237° |
| 2026-05-07 19:47 | 37.32151 | 25.34762 | 5877 ft | 245 kts | 238° |
| 2026-05-07 19:47 | 37.31279 | 25.32923 | 6816 ft | 245 kts | 240° |
| 2026-05-07 19:48 | 37.30470 | 25.31047 | 7704 ft | 244 kts | 243° |
| 2026-05-07 19:48 | 37.29738 | 25.29160 | 8734 ft | 236 kts | 245° |
| 2026-05-07 19:48 | 37.29056 | 25.27286 | 9599 ft | 237 kts | 247° |
| 2026-05-07 19:48 | 37.28350 | 25.25400 | 10329 ft | 242 kts | 245° |
| 2026-05-07 19:49 | 37.27557 | 25.23496 | 10951 ft | 249 kts | 244° |
| 2026-05-07 19:49 | 37.27083 | 25.21418 | 11564 ft | 251 kts | 273° |
| 2026-05-07 19:49 | 37.27569 | 25.19328 | 11974 ft | 254 kts | 300° |
| 2026-05-07 19:49 | 37.28629 | 25.17544 | 12402 ft | 257 kts | 307° |
| 2026-05-07 19:50 | 37.29709 | 25.15750 | 12836 ft | 258 kts | 304° |
| 2026-05-07 19:50 | 37.30746 | 25.13896 | 13291 ft | 260 kts | 303° |
| 2026-05-07 19:50 | 37.31770 | 25.12011 | 13710 ft | 262 kts | 303° |
| 2026-05-07 19:50 | 37.32796 | 25.10103 | 14121 ft | 264 kts | 303° |
| 2026-05-07 19:51 | 37.33812 | 25.08212 | 14496 ft | 266 kts | 303° |
| 2026-05-07 19:51 | 37.34850 | 25.06284 | 14860 ft | 267 kts | 303° |
| 2026-05-07 19:51 | 37.35935 | 25.04384 | 15227 ft | 269 kts | 309° |
| 2026-05-07 19:51 | 37.37267 | 25.02730 | 15596 ft | 271 kts | 320° |
| 2026-05-07 19:52 | 37.38818 | 25.01366 | 15956 ft | 273 kts | 324° |
| 2026-05-07 19:52 | 37.40402 | 25.00035 | 16139 ft | 274 kts | 324° |
| 2026-05-07 19:52 | 37.41982 | 24.98701 | 16172 ft | 273 kts | 324° |
| 2026-05-07 19:52 | 37.43559 | 24.97367 | 16173 ft | 273 kts | 323° |
| 2026-05-07 19:53 | 37.45129 | 24.96036 | 16167 ft | 272 kts | 323° |
| 2026-05-07 19:53 | 37.46699 | 24.94701 | 16177 ft | 272 kts | 323° |
| 2026-05-07 19:53 | 37.48268 | 24.93361 | 16177 ft | 273 kts | 323° |
| 2026-05-07 19:53 | 37.49843 | 24.92016 | 16172 ft | 273 kts | 323° |
| 2026-05-07 19:54 | 37.51415 | 24.90674 | 16168 ft | 273 kts | 323° |
| 2026-05-07 19:54 | 37.52987 | 24.89334 | 16160 ft | 273 kts | 323° |
| 2026-05-07 19:54 | 37.54560 | 24.87996 | 16167 ft | 273 kts | 323° |
| 2026-05-07 19:54 | 37.56134 | 24.86657 | 16166 ft | 273 kts | 323° |
| 2026-05-07 19:55 | 37.57708 | 24.85314 | 16174 ft | 273 kts | 323° |
| 2026-05-07 19:55 | 37.59281 | 24.83969 | 16170 ft | 274 kts | 323° |
| 2026-05-07 19:55 | 37.60931 | 24.82555 | 16168 ft | 301 kts | 323° |
| 2026-05-07 19:55 | 37.62737 | 24.81006 | 16154 ft | 327 kts | 323° |
| 2026-05-07 19:56 | 37.64669 | 24.79354 | 16152 ft | 340 kts | 323° |
| 2026-05-07 19:56 | 37.66639 | 24.77673 | 16151 ft | 343 kts | 323° |
| 2026-05-07 19:56 | 37.68624 | 24.75980 | 16149 ft | 344 kts | 323° |
| 2026-05-07 19:56 | 37.70621 | 24.74274 | 16147 ft | 348 kts | 323° |
| 2026-05-07 19:57 | 37.72597 | 24.72584 | 16025 ft | 338 kts | 323° |
| 2026-05-07 19:57 | 37.74529 | 24.70933 | 15666 ft | 333 kts | 323° |
| 2026-05-07 19:57 | 37.76437 | 24.69299 | 15242 ft | 331 kts | 323° |
| 2026-05-07 19:57 | 37.78337 | 24.67672 | 14809 ft | 329 kts | 323° |
| 2026-05-07 19:58 | 37.80228 | 24.66051 | 14386 ft | 328 kts | 324° |
| 2026-05-07 19:58 | 37.82112 | 24.64432 | 13966 ft | 326 kts | 324° |
| 2026-05-07 19:58 | 37.83984 | 24.62820 | 13517 ft | 325 kts | 324° |
| 2026-05-07 19:58 | 37.85847 | 24.61215 | 13089 ft | 323 kts | 324° |
| 2026-05-07 19:59 | 37.87697 | 24.59621 | 12660 ft | 320 kts | 324° |
| 2026-05-07 19:59 | 37.89532 | 24.58041 | 12242 ft | 318 kts | 324° |
| 2026-05-07 19:59 | 37.91360 | 24.56469 | 11836 ft | 316 kts | 324° |
| 2026-05-07 19:59 | 37.93174 | 24.54906 | 11437 ft | 314 kts | 324° |
| 2026-05-07 20:00 | 37.94369 | 24.53874 | 11177 ft | 313 kts | 324° |
| 2026-05-07 20:00 | 37.96165 | 24.52322 | 10790 ft | 311 kts | 324° |
| 2026-05-07 20:00 | 37.97944 | 24.50778 | 10420 ft | 309 kts | 323° |
| 2026-05-07 20:00 | 37.99514 | 24.48961 | 10040 ft | 304 kts | 308° |
| 2026-05-07 20:01 | 38.00637 | 24.46731 | 9789 ft | 296 kts | 297° |
| 2026-05-07 20:01 | 38.01623 | 24.44485 | 9623 ft | 288 kts | 298° |
| 2026-05-07 20:01 | 38.02601 | 24.42290 | 9315 ft | 285 kts | 298° |
| 2026-05-07 20:01 | 38.03576 | 24.40113 | 8978 ft | 283 kts | 298° |
| 2026-05-07 20:02 | 38.04544 | 24.37951 | 8638 ft | 281 kts | 298° |
| 2026-05-07 20:02 | 38.05503 | 24.35796 | 8293 ft | 280 kts | 297° |
| 2026-05-07 20:02 | 38.06438 | 24.33639 | 7969 ft | 278 kts | 297° |
| 2026-05-07 20:02 | 38.07355 | 24.31489 | 7633 ft | 277 kts | 297° |
| 2026-05-07 20:03 | 38.08265 | 24.29344 | 7295 ft | 276 kts | 296° |
| 2026-05-07 20:03 | 38.09171 | 24.27203 | 6982 ft | 275 kts | 297° |
| 2026-05-07 20:03 | 38.10089 | 24.25082 | 6671 ft | 274 kts | 297° |
| 2026-05-07 20:03 | 38.11022 | 24.22978 | 6307 ft | 273 kts | 298° |
| 2026-05-07 20:04 | 38.11971 | 24.20853 | 5669 ft | 283 kts | 298° |
| 2026-05-07 20:04 | 38.12962 | 24.18629 | 4946 ft | 296 kts | 298° |
| 2026-05-07 20:04 | 38.13955 | 24.16337 | 4599 ft | 293 kts | 292° |
| 2026-05-07 20:04 | 38.14288 | 24.13892 | 4465 ft | 276 kts | 260° |
| 2026-05-07 20:05 | 38.13530 | 24.11764 | 4357 ft | 260 kts | 225° |
| 2026-05-07 20:05 | 38.12084 | 24.10607 | 4265 ft | 237 kts | 202° |
| 2026-05-07 20:05 | 38.10703 | 24.09637 | 4153 ft | 222 kts | 215° |
| 2026-05-07 20:05 | 38.09485 | 24.08457 | 3898 ft | 219 kts | 216° |
| 2026-05-07 20:06 | 38.08278 | 24.07278 | 3623 ft | 218 kts | 216° |
| 2026-05-07 20:06 | 38.07072 | 24.06119 | 3344 ft | 217 kts | 215° |
| 2026-05-07 20:06 | 38.05872 | 24.04972 | 3060 ft | 215 kts | 215° |
| 2026-05-07 20:06 | 38.04684 | 24.03836 | 2784 ft | 213 kts | 215° |
| 2026-05-07 20:07 | 38.03505 | 24.02711 | 2498 ft | 211 kts | 216° |
| 2026-05-07 20:07 | 38.02351 | 24.01609 | 2238 ft | 199 kts | 216° |
| 2026-05-07 20:07 | 38.01291 | 24.00596 | 1962 ft | 182 kts | 216° |
| 2026-05-07 20:07 | 38.00336 | 23.99681 | 1708 ft | 163 kts | 216° |
| 2026-05-07 20:08 | 37.99472 | 23.98841 | 1466 ft | 150 kts | 216° |
| 2026-05-07 20:08 | 37.98660 | 23.98081 | 1244 ft | 141 kts | 217° |
| 2026-05-07 20:08 | 37.97881 | 23.97338 | 1064 ft | 140 kts | 217° |
| 2026-05-07 20:08 | 37.97098 | 23.96615 | 922 ft | 139 kts | 218° |
| 2026-05-07 20:09 | 37.96324 | 23.95879 | 748 ft | 140 kts | 219° |
| 2026-05-07 20:09 | 37.95543 | 23.95107 | 518 ft | 139 kts | 217° |
| 2026-05-07 20:09 | 37.94772 | 23.94380 | 361 ft | 140 kts | 219° |
| 2026-05-07 20:10 | 37.93617 | 23.93282 | 292 ft | 91 kts | 217° |
| 2026-05-07 20:10 | 37.93551 | 23.93219 | 293 ft | 87 kts | 217° |
| 2026-05-07 20:10 | 37.93247 | 23.92935 | 289 ft | 29 kts | 204° |
| 2026-05-07 20:10 | 37.93067 | 23.92841 | 291 ft | 28 kts | 197° |
| 2026-05-07 20:11 | 37.92933 | 23.92852 | 299 ft | 11 kts | 104° |
| 2026-05-07 20:11 | 37.92963 | 23.92941 | 299 ft | 13 kts | 40° |
| 2026-05-07 20:11 | 37.93048 | 23.93021 | 300 ft | 17 kts | 38° |
| 2026-05-07 20:11 | 37.93151 | 23.93122 | 301 ft | 20 kts | 35° |
| 2026-05-07 20:12 | 37.93268 | 23.93232 | 301 ft | 21 kts | 31° |
| 2026-05-07 20:12 | 37.93389 | 23.93349 | 300 ft | 23 kts | 36° |
| 2026-05-07 20:12 | 37.93527 | 23.93475 | 299 ft | 26 kts | 38° |
| 2026-05-07 20:12 | 37.93676 | 23.93618 | 301 ft | 28 kts | 36° |
| 2026-05-07 20:13 | 37.93814 | 23.93752 | 300 ft | 22 kts | 35° |
| 2026-05-07 20:13 | 37.93943 | 23.93874 | 300 ft | 24 kts | 37° |
| 2026-05-07 20:13 | 37.94078 | 23.93999 | 300 ft | 22 kts | 37° |
| 2026-05-07 20:13 | 37.94196 | 23.94113 | 302 ft | 22 kts | 38° |
| 2026-05-07 20:14 | 37.94324 | 23.94237 | 302 ft | 24 kts | 36° |
| 2026-05-07 20:14 | 37.94462 | 23.94366 | 304 ft | 25 kts | 37° |
| 2026-05-07 20:14 | 37.94601 | 23.94498 | 303 ft | 24 kts | 35° |
| 2026-05-07 20:14 | 37.94683 | 23.94589 | 302 ft | 12 kts | 69° |
| 2026-05-07 20:15 | 37.94649 | 23.94686 | 301 ft | 13 kts | 128° |
| 2026-05-07 20:15 | 37.94591 | 23.94781 | 301 ft | 14 kts | 126° |
| 2026-05-07 20:15 | 37.94530 | 23.94884 | 301 ft | 15 kts | 127° |
| 2026-05-07 20:15 | 37.94465 | 23.94994 | 302 ft | 16 kts | 127° |
| 2026-05-07 20:16 | 37.94396 | 23.95110 | 303 ft | 17 kts | 126° |
| 2026-05-07 20:16 | 37.94323 | 23.95232 | 301 ft | 18 kts | 126° |
| 2026-05-07 20:16 | 37.94264 | 23.95333 | 303 ft | 12 kts | 127° |
| 2026-05-07 20:16 | 37.94226 | 23.95367 | 301 ft | 5 kts | 189° |
| 2026-05-07 20:17 | 37.94197 | 23.95331 | 301 ft | 6 kts | 220° |
| 2026-05-07 20:17 | 37.94169 | 23.95304 | 301 ft | 2 kts | 218° |
| 2026-05-07 20:17 | 37.94159 | 23.95294 | 302 ft | 0 kts | 218° |